Time;durP1;ratioP1;P1;durP2;ratioP2;P2;SDS_P1;SDS_P2;PMS_P1;PMS_P2;Temp;Humidity;BMP_temperature;BMP_pressure;BME280_temperature;BME280_humidity;BME280_pressure;Samples;Min_cycle;Max_cycle;Signal;HPM_P1;HPM_P2
2022/11/29 05:02:33;;;;;;;13.70;12.50;;;8.80;99.90;;;;;;5102280;23;20492;-64
2022/11/29 05:05:10;;;;;;;14.00;12.80;;;8.80;99.90;;;;;;4995640;28;20804;-63
2022/11/29 05:07:44;;;;;;;14.73;13.53;;;8.80;99.90;;;;;;4995444;28;20442;-63
2022/11/29 05:10:24;;;;;;;15.27;13.73;;;8.80;99.90;;;;;;4995084;28;20464;-64
2022/11/29 05:12:59;;;;;;;15.67;14.07;;;8.80;99.90;;;;;;4995464;28;20430;-64
2022/11/29 05:15:44;;;;;;;14.23;12.93;;;8.80;99.90;;;;;;4995213;28;20832;-63
2022/11/29 05:18:21;;;;;;;15.60;14.07;;;8.80;99.90;;;;;;4995362;28;20492;-64
2022/11/29 05:20:58;;;;;;;16.10;14.40;;;8.80;99.90;;;;;;4995062;28;20532;-64
2022/11/29 05:23:33;;;;;;;16.67;15.10;;;8.80;99.90;;;;;;4995588;28;20512;-64
2022/11/29 05:26:05;;;;;;;17.00;15.40;;;8.80;99.90;;;;;;4995165;28;20444;-64
2022/11/29 05:28:42;;;;;;;16.87;15.27;;;8.80;99.90;;;;;;4994976;28;20442;-63
2022/11/29 05:31:47;;;;;;;17.80;16.10;;;8.80;99.90;;;;;;4995003;28;20484;-63
2022/11/29 05:34:40;;;;;;;17.90;15.80;;;8.80;99.90;;;;;;4995386;28;20477;-64
2022/11/29 05:37:19;;;;;;;21.00;17.40;;;8.80;99.90;;;;;;4994769;28;20473;-63
2022/11/29 05:40:01;;;;;;;18.80;16.23;;;8.80;99.90;;;;;;4994895;28;20434;-64
2022/11/29 05:42:44;;;;;;;23.83;18.00;;;8.80;99.90;;;;;;4994899;28;20892;-63
2022/11/29 05:45:16;;;;;;;19.57;17.50;;;8.80;99.90;;;;;;4994766;28;20444;-63
2022/11/29 05:47:51;;;;;;;20.20;18.30;;;8.80;99.90;;;;;;4994856;28;20933;-63
2022/11/29 05:50:26;;;;;;;20.90;18.80;;;8.70;99.90;;;;;;4995728;28;20437;-63
2022/11/29 05:52:58;;;;;;;21.97;19.60;;;8.70;99.90;;;;;;4995868;28;20442;-63
2022/11/29 05:55:34;;;;;;;21.27;18.27;;;8.80;99.90;;;;;;4994706;28;20438;-63
2022/11/29 05:58:08;;;;;;;21.87;18.40;;;8.80;99.90;;;;;;4994718;28;20442;-63
2022/11/29 06:00:41;;;;;;;22.67;20.13;;;8.80;99.90;;;;;;4994401;28;20486;-64
2022/11/29 06:03:17;;;;;;;21.77;19.07;;;8.80;99.90;;;;;;4994193;28;20489;-63
2022/11/29 06:05:51;;;;;;;23.13;18.50;;;8.90;99.90;;;;;;4994511;28;20500;-63
2022/11/29 06:08:23;;;;;;;21.00;18.73;;;8.90;99.90;;;;;;4994613;28;20858;-62
2022/11/29 06:10:57;;;;;;;24.17;19.43;;;8.90;99.90;;;;;;4994401;28;20561;-62
2022/11/29 06:13:36;;;;;;;23.73;19.97;;;8.90;99.90;;;;;;4994218;28;20442;-62
2022/11/29 06:16:17;;;;;;;25.37;19.83;;;8.80;99.90;;;;;;4994301;28;20442;-62
2022/11/29 06:19:19;;;;;;;23.43;19.37;;;8.80;99.90;;;;;;4994264;28;20438;-62
2022/11/29 06:21:59;;;;;;;30.73;22.97;;;8.80;99.90;;;;;;4993182;28;20480;-62
2022/11/29 06:24:45;;;;;;;33.20;21.17;;;8.80;99.90;;;;;;4998196;28;20438;-62
2022/11/29 06:27:29;;;;;;;28.97;22.07;;;8.80;99.90;;;;;;4998690;28;20497;-62
2022/11/29 06:30:01;;;;;;;33.07;23.60;;;8.70;99.90;;;;;;4998151;28;20442;-62
2022/11/29 06:32:39;;;;;;;26.70;22.20;;;8.80;99.90;;;;;;4997995;28;20528;-62
2022/11/29 06:35:13;;;;;;;32.43;23.60;;;8.80;99.90;;;;;;4998054;28;20778;-62
2022/11/29 06:37:45;;;;;;;34.90;22.77;;;8.80;99.90;;;;;;4997796;28;20492;-62
2022/11/29 06:40:15;;;;;;;34.60;22.37;;;8.80;99.90;;;;;;4997688;28;20442;-64
2022/11/29 06:42:42;;;;;;;39.33;21.40;;;8.80;99.90;;;;;;4997966;28;20477;-63
2022/11/29 06:45:12;;;;;;;40.77;21.30;;;8.80;99.90;;;;;;4998020;28;20454;-64
2022/11/29 06:47:44;;;;;;;32.43;21.37;;;8.80;99.90;;;;;;4997665;28;20507;-64
2022/11/29 06:50:28;;;;;;;39.67;22.90;;;8.80;99.90;;;;;;4997720;28;20513;-64
2022/11/29 06:53:02;;;;;;;33.70;23.70;;;8.80;99.90;;;;;;4997283;28;20931;-64
2022/11/29 06:55:39;;;;;;;35.70;22.40;;;8.70;99.90;;;;;;4997711;28;20507;-64
2022/11/29 06:58:13;;;;;;;37.90;23.53;;;8.80;99.90;;;;;;4997556;28;20500;-64
2022/11/29 07:00:48;;;;;;;34.80;22.20;;;8.80;99.90;;;;;;4997042;28;20602;-64
2022/11/29 07:03:36;;;;;;;31.47;21.60;;;8.70;99.90;;;;;;4997100;28;20967;-64
2022/11/29 07:06:15;;;;;;;32.27;24.23;;;8.80;99.90;;;;;;4997406;28;20445;-65
2022/11/29 07:08:44;;;;;;;29.87;22.20;;;8.80;99.90;;;;;;4997401;28;20446;-64
2022/11/29 07:11:13;;;;;;;30.20;22.90;;;8.80;99.90;;;;;;4997169;28;20469;-64
2022/11/29 07:13:40;;;;;;;27.93;23.00;;;8.80;99.90;;;;;;4997261;28;20455;-64
2022/11/29 07:16:17;;;;;;;32.73;21.83;;;8.90;99.90;;;;;;4997095;28;20458;-64
2022/11/29 07:18:51;;;;;;;26.37;21.10;;;8.80;99.90;;;;;;4997249;28;20446;-64
2022/11/29 07:21:23;;;;;;;26.60;18.83;;;8.90;99.90;;;;;;4997219;28;20528;-64
2022/11/29 07:24:00;;;;;;;23.53;20.70;;;8.90;99.90;;;;;;4997061;28;20469;-64
2022/11/29 07:26:35;;;;;;;32.30;21.67;;;8.90;99.90;;;;;;4997080;28;20500;-64
2022/11/29 07:29:17;;;;;;;20.53;18.33;;;8.90;99.90;;;;;;4996971;28;20445;-64
2022/11/29 07:31:58;;;;;;;21.40;19.10;;;8.80;99.90;;;;;;4996082;28;20481;-64
2022/11/29 07:34:38;;;;;;;23.80;19.63;;;8.80;99.90;;;;;;4996720;28;20975;-64
2022/11/29 07:37:15;;;;;;;23.13;20.60;;;8.80;99.90;;;;;;4996513;28;20956;-64
2022/11/29 07:39:51;;;;;;;21.30;19.00;;;8.80;99.90;;;;;;4996725;28;20442;-65
2022/11/29 07:42:25;;;;;;;19.50;17.47;;;8.80;99.90;;;;;;4997445;28;20528;-64
2022/11/29 07:45:00;;;;;;;22.03;18.10;;;8.70;99.90;;;;;;4996748;28;20441;-64
2022/11/29 07:47:26;;;;;;;18.60;16.70;;;8.70;99.90;;;;;;4996516;28;20441;-64
2022/11/29 07:49:53;;;;;;;18.60;16.67;;;8.80;99.90;;;;;;4996453;28;20462;-65
2022/11/29 07:52:20;;;;;;;20.23;18.10;;;8.70;99.90;;;;;;4996430;28;20474;-64
2022/11/29 07:54:48;;;;;;;19.50;16.97;;;8.80;99.90;;;;;;4996440;28;20457;-64
2022/11/29 07:57:14;;;;;;;20.87;18.10;;;8.80;99.90;;;;;;4996481;28;20512;-64
2022/11/29 07:59:41;;;;;;;16.73;15.03;;;8.80;99.90;;;;;;4996248;28;20458;-64
2022/11/29 08:02:10;;;;;;;18.07;15.10;;;8.80;99.90;;;;;;4995975;28;20488;-64
2022/11/29 08:04:40;;;;;;;19.33;14.77;;;8.80;99.90;;;;;;4996414;28;20481;-65
2022/11/29 08:07:07;;;;;;;15.50;13.67;;;8.80;99.90;;;;;;4996574;28;20442;-64
2022/11/29 08:09:34;;;;;;;14.00;12.60;;;8.90;99.90;;;;;;4996324;28;20457;-64
2022/11/29 08:12:02;;;;;;;13.10;11.73;;;8.90;99.90;;;;;;4997427;28;20544;-65
2022/11/29 08:14:31;;;;;;;10.77;9.87;;;8.90;99.90;;;;;;5000374;28;20450;-65
2022/11/29 08:16:58;;;;;;;12.23;10.60;;;8.90;99.90;;;;;;4999400;28;20450;-65
2022/11/29 08:19:24;;;;;;;11.47;10.30;;;8.90;99.90;;;;;;5000552;28;20461;-65
2022/11/29 08:21:51;;;;;;;10.90;9.83;;;8.80;99.90;;;;;;4998782;28;20980;-65
2022/11/29 08:24:18;;;;;;;9.93;9.03;;;8.80;99.90;;;;;;4995878;28;20481;-64
2022/11/29 08:26:44;;;;;;;8.10;7.30;;;8.90;99.90;;;;;;4996008;28;20465;-64
2022/11/29 08:29:12;;;;;;;8.63;7.83;;;8.80;99.90;;;;;;4995832;28;20512;-64
2022/11/29 08:31:39;;;;;;;7.43;6.83;;;8.80;99.90;;;;;;4995228;28;20548;-64
2022/11/29 08:34:06;;;;;;;8.60;7.80;;;8.80;99.90;;;;;;4995690;28;20450;-64
2022/11/29 08:36:33;;;;;;;8.67;7.87;;;8.80;99.90;;;;;;4995650;28;20895;-64
2022/11/29 08:39:01;;;;;;;9.60;8.60;;;8.80;99.90;;;;;;4995331;28;20457;-64
2022/11/29 08:41:29;;;;;;;10.93;9.87;;;8.80;99.90;;;;;;4995548;28;20513;-64
2022/11/29 08:43:56;;;;;;;10.97;9.50;;;8.80;99.90;;;;;;4994423;28;20476;-64
2022/11/29 08:47:34;;;;;;;17.30;12.20;;;8.80;99.90;;;;;;4995628;28;20573;-64
2022/11/29 08:49:11;;;;;;;15.60;13.30;;;8.80;99.90;;;;;;4995090;28;20472;-64
2022/11/29 08:51:37;;;;;;;22.00;14.83;;;8.80;99.90;;;;;;4995187;28;20478;-64
2022/11/29 08:54:03;;;;;;;27.07;15.43;;;8.70;99.90;;;;;;4994959;28;20937;-64
2022/11/29 08:56:30;;;;;;;27.37;17.30;;;8.70;99.90;;;;;;4995242;28;20458;-64
2022/11/29 08:58:56;;;;;;;25.13;15.90;;;8.70;99.90;;;;;;4995240;28;20198;-64
2022/11/29 09:01:25;;;;;;;27.80;18.10;;;8.70;99.90;;;;;;4994990;28;20485;-64
2022/11/29 09:04:01;;;;;;;27.73;18.10;;;8.70;99.90;;;;;;4994980;28;20478;-64
2022/11/29 09:06:30;;;;;;;36.60;21.67;;;8.80;99.90;;;;;;4995178;28;20473;-64
2022/11/29 09:08:58;;;;;;;31.63;19.43;;;8.80;99.90;;;;;;4995050;28;20461;-64
2022/11/29 09:11:27;;;;;;;28.80;21.13;;;8.80;99.90;;;;;;4995013;28;20477;-64
2022/11/29 09:13:57;;;;;;;27.00;19.73;;;8.80;99.90;;;;;;4995598;28;20505;-65
2022/11/29 09:16:27;;;;;;;34.17;22.03;;;8.80;99.90;;;;;;4995778;28;20457;-64
2022/11/29 09:18:54;;;;;;;33.23;22.20;;;8.80;99.90;;;;;;4995046;28;20944;-64
2022/11/29 09:21:22;;;;;;;31.10;21.00;;;8.80;99.90;;;;;;4995049;28;20477;-64
2022/11/29 09:23:49;;;;;;;32.73;20.87;;;8.80;99.90;;;;;;4994836;28;20535;-64
2022/11/29 09:26:18;;;;;;;32.13;20.80;;;8.80;99.90;;;;;;4994810;28;20477;-66
2022/11/29 09:28:45;;;;;;;29.57;20.87;;;8.80;99.90;;;;;;4994658;28;20996;-63
2022/11/29 09:31:14;;;;;;;26.90;19.93;;;8.70;99.90;;;;;;4994709;28;20526;-63
2022/11/29 09:33:44;;;;;;;30.77;19.97;;;8.70;99.90;;;;;;4994687;28;20512;-63
2022/11/29 09:36:11;;;;;;;28.10;18.97;;;8.60;99.90;;;;;;4994686;28;20872;-63
2022/11/29 09:38:38;;;;;;;25.17;19.03;;;8.60;99.90;;;;;;4994658;28;20457;-63
2022/11/29 09:41:17;;;;;;;27.37;19.10;;;8.60;99.90;;;;;;4994769;28;20536;-63
2022/11/29 09:43:52;;;;;;;25.63;19.13;;;8.60;99.90;;;;;;4994418;28;20968;-63
2022/11/29 09:46:31;;;;;;;25.20;19.30;;;8.60;99.90;;;;;;4994548;28;20930;-63
2022/11/29 09:49:27;;;;;;;24.10;18.23;;;8.60;99.90;;;;;;4994617;28;20438;-64
2022/11/29 09:52:01;;;;;;;21.63;18.00;;;8.60;99.90;;;;;;4994492;28;21039;-63
2022/11/29 09:54:37;;;;;;;19.40;17.03;;;8.60;99.90;;;;;;4994365;28;20446;-63
2022/11/29 09:57:06;;;;;;;20.00;16.90;;;8.60;99.90;;;;;;4994609;28;20449;-63
2022/11/29 09:59:38;;;;;;;18.57;16.50;;;8.70;99.90;;;;;;4994481;28;20462;-63
2022/11/29 10:02:14;;;;;;;20.70;17.80;;;8.70;99.90;;;;;;4994235;28;20485;-63
2022/11/29 10:04:48;;;;;;;19.07;16.53;;;8.70;99.90;;;;;;4994424;28;20469;-63
2022/11/29 10:07:20;;;;;;;19.13;17.00;;;8.70;99.90;;;;;;4994459;28;20510;-63
2022/11/29 10:09:51;;;;;;;19.43;17.33;;;8.70;99.90;;;;;;4994309;28;20496;-63
2022/11/29 10:12:26;;;;;;;19.23;17.20;;;8.70;99.90;;;;;;4994498;28;20481;-63
2022/11/29 10:15:00;;;;;;;19.03;17.13;;;8.70;99.90;;;;;;4993913;28;20852;-63
2022/11/29 10:17:34;;;;;;;19.13;17.03;;;8.70;99.90;;;;;;4994249;28;20494;-63
2022/11/29 10:20:06;;;;;;;18.43;16.63;;;8.80;99.90;;;;;;4994153;28;20492;-63
2022/11/29 10:22:40;;;;;;;18.20;15.73;;;8.70;99.90;;;;;;4993894;28;20984;-63
2022/11/29 10:25:10;;;;;;;16.13;14.77;;;8.70;99.90;;;;;;4994514;28;20822;-63
2022/11/29 10:27:40;;;;;;;17.73;16.00;;;8.70;99.90;;;;;;4994530;28;20453;-64
2022/11/29 10:30:13;;;;;;;16.83;15.00;;;8.70;99.90;;;;;;4994700;28;20512;-64
2022/11/29 10:32:41;;;;;;;15.77;14.23;;;8.80;99.90;;;;;;4994427;28;20449;-64
2022/11/29 10:35:14;;;;;;;13.23;12.23;;;8.80;99.90;;;;;;4994371;28;20508;-64
2022/11/29 10:37:41;;;;;;;13.70;12.50;;;8.70;99.90;;;;;;4994631;28;20617;-64
2022/11/29 10:40:14;;;;;;;13.83;12.63;;;8.70;99.90;;;;;;4994519;28;20453;-64
2022/11/29 10:42:52;;;;;;;14.23;13.03;;;8.70;99.90;;;;;;4994541;28;20449;-63
2022/11/29 10:45:26;;;;;;;14.57;13.37;;;8.70;99.90;;;;;;4994554;28;20477;-64
2022/11/29 10:47:54;;;;;;;13.67;12.60;;;8.70;99.90;;;;;;4994622;28;20501;-64
2022/11/29 10:50:25;;;;;;;14.13;13.00;;;8.80;99.90;;;;;;4994096;28;20458;-64
2022/11/29 10:52:52;;;;;;;15.03;13.83;;;8.80;99.90;;;;;;4994041;28;20984;-64
2022/11/29 10:55:18;;;;;;;14.33;13.00;;;8.90;99.90;;;;;;4994452;28;20457;-64
2022/11/29 10:58:08;;;;;;;14.73;13.53;;;8.90;99.90;;;;;;4994286;28;20465;-64
2022/11/29 11:00:44;;;;;;;15.80;14.60;;;8.90;99.90;;;;;;4994146;28;20486;-64
2022/11/29 11:03:24;;;;;;;15.97;14.53;;;8.80;99.90;;;;;;4994408;28;20528;-64
2022/11/29 11:06:01;;;;;;;15.97;14.57;;;8.80;99.90;;;;;;4994226;28;20461;-64
2022/11/29 11:08:29;;;;;;;15.93;14.63;;;8.80;99.90;;;;;;4996747;28;20502;-63
2022/11/29 11:10:56;;;;;;;16.20;14.80;;;8.80;99.90;;;;;;4997087;28;21007;-64
2022/11/29 11:13:25;;;;;;;19.13;17.47;;;8.80;99.90;;;;;;4997243;28;20457;-64
2022/11/29 11:15:57;;;;;;;20.00;18.07;;;8.60;99.90;;;;;;4997241;28;20453;-63
2022/11/29 11:18:29;;;;;;;20.30;18.53;;;8.70;99.90;;;;;;4996879;28;20862;-63
2022/11/29 11:21:00;;;;;;;20.27;18.40;;;8.70;99.90;;;;;;4997014;28;20485;-64
2022/11/29 11:23:30;;;;;;;20.03;18.03;;;8.70;99.90;;;;;;4997375;28;20481;-64
2022/11/29 11:26:00;;;;;;;20.77;18.57;;;8.70;99.90;;;;;;4996941;28;20988;-63
2022/11/29 11:28:29;;;;;;;19.57;17.63;;;8.70;99.90;;;;;;4996983;28;20453;-63
2022/11/29 11:30:59;;;;;;;19.60;17.80;;;8.70;99.90;;;;;;4996608;28;21214;-63
2022/11/29 11:33:28;;;;;;;20.10;18.40;;;8.60;99.90;;;;;;4996886;28;20505;-63
2022/11/29 11:36:11;;;;;;;19.60;17.70;;;8.60;99.90;;;;;;4996847;28;20457;-63
2022/11/29 11:38:39;;;;;;;20.40;18.50;;;8.60;99.90;;;;;;4996839;28;20438;-63
2022/11/29 11:41:16;;;;;;;19.70;17.90;;;8.60;99.90;;;;;;4996708;28;20482;-63
2022/11/29 11:43:49;;;;;;;18.83;17.07;;;8.60;99.90;;;;;;4996747;28;20497;-63
2022/11/29 11:46:15;;;;;;;17.00;15.47;;;8.70;99.90;;;;;;4996675;28;20917;-63
2022/11/29 11:48:42;;;;;;;17.17;15.67;;;8.70;99.90;;;;;;4996497;28;20926;-63
2022/11/29 11:51:21;;;;;;;18.70;16.90;;;8.70;99.90;;;;;;4996793;28;20477;-63
2022/11/29 11:53:50;;;;;;;17.20;15.80;;;8.80;99.90;;;;;;4996518;28;20434;-64
2022/11/29 11:56:18;;;;;;;18.60;15.87;;;8.90;99.90;;;;;;4996494;28;20455;-63
2022/11/29 11:58:49;;;;;;;17.50;16.00;;;8.90;99.90;;;;;;4996558;28;20445;-63
2022/11/29 12:01:24;;;;;;;18.33;16.80;;;8.80;99.90;;;;;;4996960;28;20489;-64
2022/11/29 12:03:57;;;;;;;17.70;16.00;;;8.80;99.90;;;;;;4997318;28;20461;-64
2022/11/29 12:06:46;;;;;;;16.87;15.27;;;8.90;99.90;;;;;;4996892;28;20454;-63
2022/11/29 12:09:26;;;;;;;15.87;14.57;;;8.90;99.90;;;;;;4997609;28;20480;-63
2022/11/29 12:12:00;;;;;;;16.83;15.37;;;8.80;99.90;;;;;;4996866;28;20473;-63
2022/11/29 12:14:34;;;;;;;16.53;15.13;;;8.80;99.90;;;;;;4997041;28;20430;-64
2022/11/29 12:17:09;;;;;;;17.10;15.43;;;8.70;99.90;;;;;;4996269;28;20461;-63
2022/11/29 12:19:43;;;;;;;16.00;14.80;;;8.70;99.90;;;;;;4995900;28;20434;-64
2022/11/29 12:22:18;;;;;;;15.10;13.80;;;8.70;99.90;;;;;;4995833;28;20985;-64
2022/11/29 12:24:52;;;;;;;15.57;14.00;;;8.60;99.90;;;;;;4997089;28;20462;-64
2022/11/29 12:27:19;;;;;;;16.60;15.10;;;8.70;99.90;;;;;;4996635;28;20442;-64
2022/11/29 12:29:45;;;;;;;14.87;13.67;;;8.70;99.90;;;;;;4996247;28;20449;-62
2022/11/29 12:32:25;;;;;;;14.40;13.30;;;8.80;99.90;;;;;;4995778;28;20813;-62
2022/11/29 12:35:10;;;;;;;14.60;13.40;;;8.70;99.90;;;;;;4995748;28;20437;-63
2022/11/29 12:37:46;;;;;;;13.83;12.73;;;8.80;99.90;;;;;;4995811;28;20442;-63
2022/11/29 12:40:22;;;;;;;15.33;14.03;;;8.80;99.90;;;;;;4996023;28;20433;-63
2022/11/29 12:42:57;;;;;;;12.97;11.97;;;8.80;99.90;;;;;;4996109;28;20512;-63
2022/11/29 12:45:35;;;;;;;14.83;13.57;;;8.90;99.90;;;;;;4995922;28;20536;-63
2022/11/29 12:48:13;;;;;;;14.47;13.27;;;8.90;99.90;;;;;;4995663;28;20448;-63
2022/11/29 12:50:48;;;;;;;13.20;12.20;;;8.90;99.90;;;;;;4995686;28;20473;-63
2022/11/29 12:53:33;;;;;;;14.57;13.37;;;8.90;99.90;;;;;;4995646;28;20448;-63
2022/11/29 12:56:12;;;;;;;14.07;12.87;;;8.90;99.90;;;;;;4995512;28;20434;-63
2022/11/29 12:58:53;;;;;;;13.00;12.07;;;8.90;99.90;;;;;;4995550;28;20533;-63
2022/11/29 13:01:28;;;;;;;14.47;13.27;;;8.80;99.90;;;;;;4994688;28;20536;-63
2022/11/29 13:04:02;;;;;;;13.70;12.70;;;8.90;99.90;;;;;;4994818;28;20840;-63
2022/11/29 13:06:36;;;;;;;14.53;13.33;;;8.80;99.90;;;;;;4995261;28;20505;-63
2022/11/29 13:09:24;;;;;;;13.07;11.97;;;8.90;99.90;;;;;;4995310;28;20441;-63
2022/11/29 13:11:58;;;;;;;13.40;12.40;;;8.90;99.90;;;;;;4996141;28;20482;-63
2022/11/29 13:14:32;;;;;;;14.07;12.87;;;8.90;99.90;;;;;;4995216;28;20848;-63
2022/11/29 13:17:01;;;;;;;13.77;12.70;;;8.90;99.90;;;;;;4994825;28;20901;-63
2022/11/29 13:19:35;;;;;;;14.20;13.10;;;8.90;99.90;;;;;;4995006;28;20461;-63
2022/11/29 13:22:10;;;;;;;13.57;12.47;;;8.80;99.90;;;;;;4994782;28;20878;-63
2022/11/29 13:24:42;;;;;;;15.17;13.87;;;8.90;99.90;;;;;;4994882;28;20466;-63
2022/11/29 13:27:15;;;;;;;14.97;13.60;;;8.90;99.90;;;;;;4994858;28;20528;-63
2022/11/29 13:29:42;;;;;;;16.50;15.20;;;8.80;99.90;;;;;;4994746;28;20442;-63
2022/11/29 13:32:31;;;;;;;16.10;14.80;;;8.80;99.90;;;;;;4994464;28;21043;-63
2022/11/29 13:35:03;;;;;;;16.03;14.83;;;8.80;99.90;;;;;;4995183;28;20565;-63
2022/11/29 13:37:37;;;;;;;16.00;14.80;;;8.70;99.90;;;;;;4994337;28;20972;-63
2022/11/29 13:40:19;;;;;;;17.37;15.97;;;8.70;99.90;;;;;;4994609;28;20442;-63
2022/11/29 13:42:53;;;;;;;17.60;16.20;;;8.60;99.90;;;;;;4994536;28;20469;-63
2022/11/29 13:45:26;;;;;;;18.33;16.90;;;8.70;99.90;;;;;;4994472;28;20557;-63
2022/11/29 13:47:54;;;;;;;18.97;17.47;;;8.60;99.90;;;;;;4994264;28;20438;-63
2022/11/29 13:50:37;;;;;;;18.90;17.40;;;8.60;99.90;;;;;;4994323;28;20458;-63
2022/11/29 13:53:12;;;;;;;18.77;17.17;;;8.60;99.90;;;;;;4994439;28;20731;-63
2022/11/29 13:55:46;;;;;;;19.00;17.50;;;8.70;99.90;;;;;;4994404;28;20474;-63
2022/11/29 13:58:33;;;;;;;17.43;16.03;;;8.70;99.90;;;;;;4994490;28;20449;-63
2022/11/29 14:01:01;;;;;;;20.83;19.13;;;8.60;99.90;;;;;;4994468;28;20594;-63
2022/11/29 14:03:32;;;;;;;18.83;17.30;;;8.60;99.90;;;;;;4994285;28;20481;-63
2022/11/29 14:06:19;;;;;;;19.23;17.73;;;8.60;99.90;;;;;;4994377;28;20485;-63
2022/11/29 14:09:16;;;;;;;19.73;18.17;;;8.60;99.90;;;;;;4994902;28;20465;-63
2022/11/29 14:11:48;;;;;;;16.97;15.63;;;8.70;99.90;;;;;;4994240;28;20474;-63
2022/11/29 14:14:23;;;;;;;18.33;16.80;;;8.70;99.90;;;;;;4994163;28;20446;-63
2022/11/29 14:16:53;;;;;;;16.90;15.50;;;8.70;99.90;;;;;;4994317;28;20437;-63
2022/11/29 14:19:23;;;;;;;19.53;17.93;;;8.70;99.90;;;;;;4994394;28;20453;-63
2022/11/29 14:22:18;;;;;;;23.60;21.20;;;8.70;99.90;;;;;;4994882;28;20497;-63
2022/11/29 14:25:16;;;;;;;22.50;20.50;;;8.70;99.90;;;;;;4987326;28;20524;-63
2022/11/29 14:28:01;;;;;;;19.93;18.23;;;8.70;99.90;;;;;;4989108;28;20457;-65
2022/11/29 14:30:30;;;;;;;16.30;15.00;;;8.70;99.90;;;;;;4997581;28;20441;-65
2022/11/29 14:33:03;;;;;;;16.43;15.13;;;8.70;99.90;;;;;;4995412;28;20450;-64
2022/11/29 14:35:35;;;;;;;16.00;14.70;;;8.60;99.90;;;;;;4994721;28;20492;-64
2022/11/29 14:38:10;;;;;;;16.47;15.17;;;8.60;99.90;;;;;;4994358;28;20875;-64
2022/11/29 14:40:47;;;;;;;15.30;14.20;;;8.60;99.90;;;;;;4994579;28;20474;-64
2022/11/29 14:43:22;;;;;;;14.33;13.23;;;8.60;99.90;;;;;;4998201;28;20918;-64
2022/11/29 14:46:07;;;;;;;15.33;14.00;;;8.70;99.90;;;;;;4998106;28;20460;-64
2022/11/29 14:48:35;;;;;;;16.20;14.70;;;8.70;99.90;;;;;;4998703;28;20960;-64
2022/11/29 14:51:09;;;;;;;15.67;14.13;;;8.70;99.90;;;;;;4998210;28;20984;-64
2022/11/29 14:53:37;;;;;;;16.00;14.80;;;8.70;99.90;;;;;;4998275;28;20460;-64
2022/11/29 14:56:37;;;;;;;15.37;14.17;;;8.70;99.90;;;;;;4997643;28;20865;-64
2022/11/29 14:59:46;;;;;;;15.73;14.53;;;8.70;99.90;;;;;;4997648;28;20438;-64
2022/11/29 15:02:25;;;;;;;16.83;15.43;;;8.70;99.90;;;;;;4997067;28;21051;-64
2022/11/29 15:04:55;;;;;;;17.43;15.90;;;8.70;99.90;;;;;;4997334;28;20469;-65
2022/11/29 15:07:28;;;;;;;16.87;15.37;;;8.70;99.90;;;;;;4997335;28;20457;-65
2022/11/29 15:09:59;;;;;;;15.50;14.10;;;8.70;99.90;;;;;;4997871;28;20449;-66
2022/11/29 15:12:29;;;;;;;16.40;15.00;;;8.70;99.90;;;;;;4997214;28;20560;-64
2022/11/29 15:15:08;;;;;;;15.60;14.30;;;8.70;99.90;;;;;;4997087;28;20504;-64
2022/11/29 15:17:45;;;;;;;17.30;15.73;;;8.70;99.90;;;;;;4997168;28;20437;-64
2022/11/29 15:20:36;;;;;;;15.33;14.07;;;8.70;99.90;;;;;;4997550;28;20438;-66
2022/11/29 15:23:06;;;;;;;16.07;14.77;;;8.70;99.90;;;;;;4997006;28;20449;-63
2022/11/29 15:25:33;;;;;;;18.43;15.57;;;8.70;99.90;;;;;;4996934;28;20481;-64
2022/11/29 15:28:01;;;;;;;16.77;15.07;;;8.70;99.90;;;;;;4996917;28;20461;-64
2022/11/29 15:30:32;;;;;;;16.50;15.13;;;8.70;99.90;;;;;;4996960;28;20819;-63
2022/11/29 15:33:00;;;;;;;15.27;14.03;;;8.60;99.90;;;;;;4997521;28;20464;-62
2022/11/29 15:35:27;;;;;;;16.00;14.70;;;8.60;99.90;;;;;;4996829;28;20446;-62
2022/11/29 15:37:54;;;;;;;16.90;15.50;;;8.50;99.90;;;;;;4996871;28;20487;-61
2022/11/29 15:40:23;;;;;;;16.33;14.93;;;8.50;99.90;;;;;;4996750;28;20458;-62
2022/11/29 15:42:56;;;;;;;17.70;16.17;;;8.50;99.90;;;;;;4996398;28;21011;-64
2022/11/29 15:45:33;;;;;;;16.47;15.17;;;8.50;99.90;;;;;;4996909;28;20469;-61
2022/11/29 15:48:27;;;;;;;17.40;15.90;;;8.50;99.90;;;;;;4996855;28;20983;-61
2022/11/29 15:51:03;;;;;;;17.30;15.80;;;8.50;99.90;;;;;;4941005;28;20981;-61
2022/11/29 15:53:35;;;;;;;17.03;15.63;;;8.50;99.90;;;;;;4996098;28;20501;-61
2022/11/29 15:56:04;;;;;;;16.63;15.33;;;8.50;99.90;;;;;;4996182;28;20924;-62
2022/11/29 15:58:33;;;;;;;17.00;15.43;;;8.50;99.90;;;;;;4996534;28;20450;-63
2022/11/29 16:01:02;;;;;;;17.37;15.97;;;8.50;99.90;;;;;;4996121;28;20482;-61
2022/11/29 16:03:32;;;;;;;17.57;16.00;;;8.60;99.90;;;;;;4996525;28;20454;-62
2022/11/29 16:06:08;;;;;;;18.00;16.40;;;8.50;99.90;;;;;;4996542;28;20474;-63
2022/11/29 16:08:38;;;;;;;17.07;15.50;;;8.60;99.90;;;;;;4996530;28;20438;-62
2022/11/29 16:11:06;;;;;;;17.63;16.13;;;8.50;99.90;;;;;;4996327;28;20481;-62
2022/11/29 16:13:36;;;;;;;17.50;15.80;;;8.50;99.90;;;;;;4996181;28;20458;-62
2022/11/29 16:16:12;;;;;;;16.13;14.73;;;8.50;99.90;;;;;;4996127;28;20461;-62
2022/11/29 16:18:40;;;;;;;16.67;15.17;;;8.50;99.90;;;;;;4996225;28;20441;-62
2022/11/29 16:21:21;;;;;;;16.87;15.43;;;8.50;99.90;;;;;;4995731;28;20632;-62
2022/11/29 16:23:48;;;;;;;16.80;15.33;;;8.50;99.90;;;;;;4996232;28;20502;-62
2022/11/29 16:26:18;;;;;;;16.33;14.87;;;8.50;99.90;;;;;;4996084;28;20477;-62
2022/11/29 16:28:48;;;;;;;16.97;15.57;;;8.60;99.90;;;;;;4996126;28;20542;-63
2022/11/29 16:31:17;;;;;;;17.20;15.37;;;8.60;99.90;;;;;;4996129;28;20473;-63
2022/11/29 16:33:46;;;;;;;18.37;16.57;;;8.60;99.90;;;;;;4996139;28;20508;-63
2022/11/29 16:36:15;;;;;;;17.43;15.83;;;8.50;99.90;;;;;;4995719;28;21000;-63
2022/11/29 16:38:45;;;;;;;18.17;16.60;;;8.60;99.90;;;;;;4996045;28;20537;-63
2022/11/29 16:41:23;;;;;;;17.03;15.43;;;8.60;99.90;;;;;;4995908;28;20536;-64
2022/11/29 16:43:54;;;;;;;16.10;14.53;;;8.60;99.90;;;;;;4995777;28;20448;-65
2022/11/29 16:46:33;;;;;;;19.67;17.37;;;8.60;99.90;;;;;;4995984;28;20466;-64
2022/11/29 16:49:02;;;;;;;18.17;16.27;;;8.60;99.90;;;;;;4995781;28;20442;-65
2022/11/29 16:51:38;;;;;;;19.83;18.10;;;8.60;99.90;;;;;;4995212;28;20973;-64
2022/11/29 16:54:32;;;;;;;19.83;18.00;;;8.60;99.90;;;;;;4996234;28;20752;-64
2022/11/29 16:57:02;;;;;;;20.03;18.20;;;8.50;99.90;;;;;;4973847;28;20454;-64
2022/11/29 16:59:29;;;;;;;20.83;18.93;;;8.40;99.90;;;;;;4995108;28;20454;-64
2022/11/29 17:01:57;;;;;;;21.27;19.27;;;8.40;99.90;;;;;;4994928;28;20477;-64
2022/11/29 17:04:24;;;;;;;19.87;17.97;;;8.40;99.90;;;;;;4994587;28;20453;-64
2022/11/29 17:06:51;;;;;;;20.30;18.40;;;8.40;99.90;;;;;;4995075;28;20561;-64
2022/11/29 17:09:23;;;;;;;20.83;18.63;;;8.40;99.90;;;;;;4995560;28;20485;-64
2022/11/29 17:11:50;;;;;;;20.50;18.47;;;8.50;99.90;;;;;;4995726;28;20473;-65
2022/11/29 17:14:17;;;;;;;20.93;18.93;;;8.50;99.90;;;;;;4995086;28;20516;-65
2022/11/29 17:16:43;;;;;;;20.07;18.07;;;8.40;99.90;;;;;;4995029;28;20848;-64
2022/11/29 17:19:13;;;;;;;20.43;18.43;;;8.40;99.90;;;;;;4994946;28;20453;-64
2022/11/29 17:21:39;;;;;;;21.30;19.20;;;8.30;99.90;;;;;;4995059;28;20473;-64
2022/11/29 17:24:09;;;;;;;22.57;20.43;;;8.30;99.90;;;;;;4994676;28;20941;-64
2022/11/29 17:26:35;;;;;;;22.20;20.10;;;8.30;99.90;;;;;;4995068;28;20502;-64
2022/11/29 17:29:02;;;;;;;24.27;21.87;;;8.30;99.90;;;;;;4994642;28;20457;-64
2022/11/29 17:31:30;;;;;;;25.60;23.00;;;8.30;99.90;;;;;;4994556;28;20473;-64
2022/11/29 17:33:59;;;;;;;25.87;23.20;;;8.30;99.90;;;;;;4994942;28;20461;-64
2022/11/29 17:36:27;;;;;;;24.40;22.10;;;8.20;99.90;;;;;;4995842;28;20458;-64
2022/11/29 17:38:54;;;;;;;25.17;22.77;;;8.20;99.90;;;;;;4996691;28;20454;-65
2022/11/29 17:41:22;;;;;;;30.67;25.00;;;8.20;99.90;;;;;;4995040;28;20528;-64
2022/11/29 17:43:49;;;;;;;26.40;23.60;;;8.20;99.90;;;;;;4994854;28;20464;-65
2022/11/29 17:46:18;;;;;;;27.30;24.60;;;8.20;99.90;;;;;;4995433;28;20539;-64
2022/11/29 17:48:45;;;;;;;27.03;24.17;;;8.20;99.90;;;;;;4994884;28;20454;-63
2022/11/29 17:51:12;;;;;;;28.40;25.50;;;8.20;99.90;;;;;;4994840;28;20508;-63
2022/11/29 17:53:40;;;;;;;29.80;26.67;;;8.20;99.90;;;;;;4995311;28;20496;-64
2022/11/29 17:56:09;;;;;;;28.37;25.37;;;8.20;99.90;;;;;;4995587;28;20453;-63
2022/11/29 17:58:37;;;;;;;30.53;27.30;;;8.20;99.90;;;;;;4995080;28;21015;-66
2022/11/29 18:01:05;;;;;;;28.00;24.90;;;8.20;99.90;;;;;;4994463;28;20488;-63
2022/11/29 18:03:32;;;;;;;27.77;25.07;;;8.20;99.90;;;;;;4994409;28;20939;-63
2022/11/29 18:05:59;;;;;;;30.40;27.20;;;8.20;99.90;;;;;;4994810;28;20466;-63
2022/11/29 18:08:26;;;;;;;30.80;27.60;;;8.10;99.90;;;;;;4994540;28;20457;-64
2022/11/29 18:11:04;;;;;;;31.87;28.53;;;8.10;99.90;;;;;;4994527;28;20461;-64